sensor_id;sensor_type;location;lat;lon;timestamp;P1;durP1;ratioP1;P2;durP2;ratioP2
37201;SDS011;37799;52.390;6.136;2024-02-28T00:00:13;41.10;;;9.27;;
37201;SDS011;37799;52.390;6.136;2024-02-28T00:02:38;30.88;;;9.23;;
37201;SDS011;37799;52.390;6.136;2024-02-28T00:05:03;24.85;;;7.95;;
37201;SDS011;37799;52.390;6.136;2024-02-28T00:07:29;32.10;;;8.48;;
37201;SDS011;37799;52.390;6.136;2024-02-28T00:09:55;30.73;;;8.40;;
37201;SDS011;37799;52.390;6.136;2024-02-28T00:12:22;25.88;;;8.20;;
37201;SDS011;37799;52.390;6.136;2024-02-28T00:14:50;36.15;;;8.65;;
37201;SDS011;37799;52.390;6.136;2024-02-28T00:17:15;37.55;;;9.00;;
37201;SDS011;37799;52.390;6.136;2024-02-28T00:19:41;25.13;;;8.15;;
37201;SDS011;37799;52.390;6.136;2024-02-28T00:22:07;25.15;;;8.18;;
37201;SDS011;37799;52.390;6.136;2024-02-28T00:24:33;30.10;;;8.13;;
37201;SDS011;37799;52.390;6.136;2024-02-28T00:26:58;25.25;;;8.40;;
37201;SDS011;37799;52.390;6.136;2024-02-28T00:29:23;25.92;;;9.13;;
37201;SDS011;37799;52.390;6.136;2024-02-28T00:31:49;22.67;;;7.53;;
37201;SDS011;37799;52.390;6.136;2024-02-28T00:34:14;22.58;;;7.68;;
37201;SDS011;37799;52.390;6.136;2024-02-28T00:36:39;25.23;;;8.43;;
37201;SDS011;37799;52.390;6.136;2024-02-28T00:39:04;26.65;;;7.78;;
37201;SDS011;37799;52.390;6.136;2024-02-28T00:41:30;21.77;;;7.55;;
37201;SDS011;37799;52.390;6.136;2024-02-28T00:43:55;39.22;;;8.77;;
37201;SDS011;37799;52.390;6.136;2024-02-28T00:46:20;29.58;;;8.48;;
37201;SDS011;37799;52.390;6.136;2024-02-28T00:48:46;26.88;;;8.13;;
37201;SDS011;37799;52.390;6.136;2024-02-28T00:51:11;20.65;;;6.75;;
37201;SDS011;37799;52.390;6.136;2024-02-28T00:53:36;24.67;;;8.75;;
37201;SDS011;37799;52.390;6.136;2024-02-28T00:56:02;30.70;;;8.77;;
37201;SDS011;37799;52.390;6.136;2024-02-28T00:58:28;24.05;;;7.82;;
37201;SDS011;37799;52.390;6.136;2024-02-28T01:00:55;23.13;;;8.07;;
37201;SDS011;37799;52.390;6.136;2024-02-28T01:03:20;22.98;;;7.20;;
37201;SDS011;37799;52.390;6.136;2024-02-28T01:05:45;25.48;;;9.02;;
37201;SDS011;37799;52.390;6.136;2024-02-28T01:08:11;26.42;;;9.20;;
37201;SDS011;37799;52.390;6.136;2024-02-28T01:10:37;23.08;;;7.78;;
37201;SDS011;37799;52.390;6.136;2024-02-28T01:13:03;27.98;;;9.45;;
37201;SDS011;37799;52.390;6.136;2024-02-28T01:15:28;27.83;;;8.70;;
37201;SDS011;37799;52.390;6.136;2024-02-28T01:17:54;27.15;;;8.35;;
37201;SDS011;37799;52.390;6.136;2024-02-28T01:20:19;25.15;;;7.97;;
37201;SDS011;37799;52.390;6.136;2024-02-28T01:22:44;31.30;;;8.85;;
37201;SDS011;37799;52.390;6.136;2024-02-28T01:25:10;34.42;;;8.85;;
37201;SDS011;37799;52.390;6.136;2024-02-28T01:27:35;26.20;;;8.63;;
37201;SDS011;37799;52.390;6.136;2024-02-28T01:30:01;24.80;;;7.95;;
37201;SDS011;37799;52.390;6.136;2024-02-28T01:32:27;39.78;;;9.73;;
37201;SDS011;37799;52.390;6.136;2024-02-28T01:34:54;27.05;;;8.93;;
37201;SDS011;37799;52.390;6.136;2024-02-28T01:37:19;38.08;;;10.10;;
37201;SDS011;37799;52.390;6.136;2024-02-28T01:39:44;29.35;;;10.02;;
37201;SDS011;37799;52.390;6.136;2024-02-28T01:42:10;31.05;;;10.73;;
37201;SDS011;37799;52.390;6.136;2024-02-28T01:44:41;28.17;;;9.57;;
37201;SDS011;37799;52.390;6.136;2024-02-28T01:47:09;44.38;;;10.50;;
37201;SDS011;37799;52.390;6.136;2024-02-28T01:49:35;34.92;;;8.90;;
37201;SDS011;37799;52.390;6.136;2024-02-28T01:52:00;25.92;;;8.40;;
37201;SDS011;37799;52.390;6.136;2024-02-28T01:54:26;32.28;;;10.15;;
37201;SDS011;37799;52.390;6.136;2024-02-28T01:56:52;34.70;;;9.25;;
37201;SDS011;37799;52.390;6.136;2024-02-28T01:59:19;34.05;;;10.13;;
37201;SDS011;37799;52.390;6.136;2024-02-28T02:01:45;32.08;;;8.75;;
37201;SDS011;37799;52.390;6.136;2024-02-28T02:04:10;36.05;;;9.07;;
37201;SDS011;37799;52.390;6.136;2024-02-28T02:06:36;32.08;;;10.13;;
37201;SDS011;37799;52.390;6.136;2024-02-28T02:09:03;34.15;;;10.07;;
37201;SDS011;37799;52.390;6.136;2024-02-28T02:11:28;39.53;;;10.43;;
37201;SDS011;37799;52.390;6.136;2024-02-28T02:13:54;27.92;;;8.50;;
37201;SDS011;37799;52.390;6.136;2024-02-28T02:16:19;33.15;;;10.18;;
37201;SDS011;37799;52.390;6.136;2024-02-28T02:18:51;33.03;;;11.07;;
37201;SDS011;37799;52.390;6.136;2024-02-28T02:21:17;36.03;;;11.90;;
37201;SDS011;37799;52.390;6.136;2024-02-28T02:23:45;37.75;;;10.02;;
37201;SDS011;37799;52.390;6.136;2024-02-28T02:26:10;39.75;;;10.75;;
37201;SDS011;37799;52.390;6.136;2024-02-28T02:28:35;31.50;;;9.60;;
37201;SDS011;37799;52.390;6.136;2024-02-28T02:31:01;36.88;;;10.65;;
37201;SDS011;37799;52.390;6.136;2024-02-28T02:33:26;39.78;;;10.18;;
37201;SDS011;37799;52.390;6.136;2024-02-28T02:35:52;27.80;;;9.13;;
37201;SDS011;37799;52.390;6.136;2024-02-28T02:38:18;30.92;;;9.00;;
37201;SDS011;37799;52.390;6.136;2024-02-28T02:40:44;32.28;;;9.65;;
37201;SDS011;37799;52.390;6.136;2024-02-28T02:43:12;30.75;;;9.32;;
37201;SDS011;37799;52.390;6.136;2024-02-28T02:45:38;39.97;;;11.07;;
37201;SDS011;37799;52.390;6.136;2024-02-28T02:48:03;27.23;;;9.52;;
37201;SDS011;37799;52.390;6.136;2024-02-28T02:50:29;29.60;;;9.35;;
37201;SDS011;37799;52.390;6.136;2024-02-28T02:52:54;33.80;;;9.65;;
37201;SDS011;37799;52.390;6.136;2024-02-28T02:55:19;31.48;;;10.05;;
37201;SDS011;37799;52.390;6.136;2024-02-28T02:57:45;25.63;;;8.98;;
37201;SDS011;37799;52.390;6.136;2024-02-28T03:00:11;32.17;;;10.38;;
37201;SDS011;37799;52.390;6.136;2024-02-28T03:02:37;34.50;;;10.88;;
37201;SDS011;37799;52.390;6.136;2024-02-28T03:05:05;32.53;;;9.82;;
37201;SDS011;37799;52.390;6.136;2024-02-28T03:07:31;29.58;;;8.95;;
37201;SDS011;37799;52.390;6.136;2024-02-28T03:09:57;29.23;;;9.15;;
37201;SDS011;37799;52.390;6.136;2024-02-28T03:12:23;29.70;;;9.77;;
37201;SDS011;37799;52.390;6.136;2024-02-28T03:14:48;26.90;;;9.13;;
37201;SDS011;37799;52.390;6.136;2024-02-28T03:17:14;34.47;;;9.57;;
37201;SDS011;37799;52.390;6.136;2024-02-28T03:19:40;40.97;;;11.85;;
37201;SDS011;37799;52.390;6.136;2024-02-28T03:22:06;30.63;;;10.25;;
37201;SDS011;37799;52.390;6.136;2024-02-28T03:24:31;35.28;;;9.93;;
37201;SDS011;37799;52.390;6.136;2024-02-28T03:26:59;30.60;;;9.15;;
37201;SDS011;37799;52.390;6.136;2024-02-28T03:29:25;30.50;;;9.27;;
37201;SDS011;37799;52.390;6.136;2024-02-28T03:31:50;28.05;;;9.07;;
37201;SDS011;37799;52.390;6.136;2024-02-28T03:34:15;28.73;;;9.27;;
37201;SDS011;37799;52.390;6.136;2024-02-28T03:36:40;33.05;;;9.45;;
37201;SDS011;37799;52.390;6.136;2024-02-28T03:39:06;33.28;;;8.88;;
37201;SDS011;37799;52.390;6.136;2024-02-28T03:41:31;24.40;;;8.63;;
37201;SDS011;37799;52.390;6.136;2024-02-28T03:43:56;29.98;;;9.52;;
37201;SDS011;37799;52.390;6.136;2024-02-28T03:46:22;33.80;;;10.00;;
37201;SDS011;37799;52.390;6.136;2024-02-28T03:48:47;35.38;;;10.30;;
37201;SDS011;37799;52.390;6.136;2024-02-28T03:51:12;38.33;;;11.98;;
37201;SDS011;37799;52.390;6.136;2024-02-28T03:53:37;29.13;;;10.07;;
37201;SDS011;37799;52.390;6.136;2024-02-28T03:56:03;33.72;;;9.80;;
37201;SDS011;37799;52.390;6.136;2024-02-28T03:58:29;42.15;;;10.75;;
37201;SDS011;37799;52.390;6.136;2024-02-28T04:00:55;42.92;;;10.23;;
37201;SDS011;37799;52.390;6.136;2024-02-28T04:03:20;33.58;;;10.15;;
37201;SDS011;37799;52.390;6.136;2024-02-28T04:05:45;33.95;;;10.05;;
37201;SDS011;37799;52.390;6.136;2024-02-28T04:08:11;36.65;;;10.45;;
37201;SDS011;37799;52.390;6.136;2024-02-28T04:10:36;31.05;;;9.50;;
37201;SDS011;37799;52.390;6.136;2024-02-28T04:13:01;35.17;;;9.65;;
37201;SDS011;37799;52.390;6.136;2024-02-28T04:15:27;38.28;;;10.27;;
37201;SDS011;37799;52.390;6.136;2024-02-28T04:17:53;32.22;;;10.25;;
37201;SDS011;37799;52.390;6.136;2024-02-28T04:20:18;36.28;;;9.63;;
37201;SDS011;37799;52.390;6.136;2024-02-28T04:22:43;29.98;;;10.45;;
37201;SDS011;37799;52.390;6.136;2024-02-28T04:25:09;33.08;;;9.80;;
37201;SDS011;37799;52.390;6.136;2024-02-28T04:27:35;30.20;;;9.73;;
37201;SDS011;37799;52.390;6.136;2024-02-28T04:30:01;36.88;;;10.75;;
37201;SDS011;37799;52.390;6.136;2024-02-28T04:32:26;33.58;;;9.75;;
37201;SDS011;37799;52.390;6.136;2024-02-28T04:34:52;32.22;;;10.05;;
37201;SDS011;37799;52.390;6.136;2024-02-28T04:37:17;34.53;;;9.80;;
37201;SDS011;37799;52.390;6.136;2024-02-28T04:39:42;28.80;;;9.30;;
37201;SDS011;37799;52.390;6.136;2024-02-28T04:42:08;30.63;;;9.73;;
37201;SDS011;37799;52.390;6.136;2024-02-28T04:44:33;30.30;;;9.02;;
37201;SDS011;37799;52.390;6.136;2024-02-28T04:46:59;31.73;;;10.38;;
37201;SDS011;37799;52.390;6.136;2024-02-28T04:49:24;36.92;;;10.80;;
37201;SDS011;37799;52.390;6.136;2024-02-28T04:51:49;33.30;;;9.65;;
37201;SDS011;37799;52.390;6.136;2024-02-28T04:54:15;31.08;;;9.68;;
37201;SDS011;37799;52.390;6.136;2024-02-28T04:56:41;31.30;;;10.05;;
37201;SDS011;37799;52.390;6.136;2024-02-28T04:59:07;34.17;;;11.23;;
37201;SDS011;37799;52.390;6.136;2024-02-28T05:01:33;34.83;;;10.25;;
37201;SDS011;37799;52.390;6.136;2024-02-28T05:04:00;31.70;;;10.10;;
37201;SDS011;37799;52.390;6.136;2024-02-28T05:06:25;31.88;;;10.30;;
37201;SDS011;37799;52.390;6.136;2024-02-28T05:08:50;28.60;;;8.38;;
37201;SDS011;37799;52.390;6.136;2024-02-28T05:11:16;29.90;;;8.93;;
37201;SDS011;37799;52.390;6.136;2024-02-28T05:13:41;31.90;;;9.88;;
37201;SDS011;37799;52.390;6.136;2024-02-28T05:16:11;32.38;;;9.40;;
37201;SDS011;37799;52.390;6.136;2024-02-28T05:18:38;29.00;;;9.48;;
37201;SDS011;37799;52.390;6.136;2024-02-28T05:21:03;33.72;;;10.70;;
37201;SDS011;37799;52.390;6.136;2024-02-28T05:23:28;32.55;;;10.60;;
37201;SDS011;37799;52.390;6.136;2024-02-28T05:25:55;32.47;;;10.40;;
37201;SDS011;37799;52.390;6.136;2024-02-28T05:28:21;30.20;;;10.63;;
37201;SDS011;37799;52.390;6.136;2024-02-28T05:30:46;30.77;;;10.60;;
37201;SDS011;37799;52.390;6.136;2024-02-28T05:33:11;30.55;;;10.10;;
37201;SDS011;37799;52.390;6.136;2024-02-28T05:35:37;31.05;;;10.07;;
37201;SDS011;37799;52.390;6.136;2024-02-28T05:38:02;27.02;;;8.70;;
37201;SDS011;37799;52.390;6.136;2024-02-28T05:40:27;27.77;;;9.52;;
37201;SDS011;37799;52.390;6.136;2024-02-28T05:42:53;30.27;;;9.68;;
37201;SDS011;37799;52.390;6.136;2024-02-28T05:45:18;30.02;;;9.88;;
37201;SDS011;37799;52.390;6.136;2024-02-28T05:47:44;30.48;;;10.32;;
37201;SDS011;37799;52.390;6.136;2024-02-28T05:50:09;34.17;;;12.02;;
37201;SDS011;37799;52.390;6.136;2024-02-28T05:52:35;28.38;;;9.55;;
37201;SDS011;37799;52.390;6.136;2024-02-28T05:55:00;29.05;;;8.55;;
37201;SDS011;37799;52.390;6.136;2024-02-28T05:57:26;29.48;;;11.45;;
37201;SDS011;37799;52.390;6.136;2024-02-28T05:59:51;28.80;;;10.25;;
37201;SDS011;37799;52.390;6.136;2024-02-28T06:02:16;34.00;;;10.55;;
37201;SDS011;37799;52.390;6.136;2024-02-28T06:04:41;34.95;;;12.02;;
37201;SDS011;37799;52.390;6.136;2024-02-28T06:07:07;32.85;;;13.23;;
37201;SDS011;37799;52.390;6.136;2024-02-28T06:09:32;31.38;;;10.02;;
37201;SDS011;37799;52.390;6.136;2024-02-28T06:11:57;30.27;;;11.65;;
37201;SDS011;37799;52.390;6.136;2024-02-28T06:14:23;34.67;;;12.35;;
37201;SDS011;37799;52.390;6.136;2024-02-28T06:16:48;31.50;;;11.60;;
37201;SDS011;37799;52.390;6.136;2024-02-28T06:19:13;33.63;;;11.75;;
37201;SDS011;37799;52.390;6.136;2024-02-28T06:21:39;34.58;;;12.73;;
37201;SDS011;37799;52.390;6.136;2024-02-28T06:24:04;32.13;;;10.90;;
37201;SDS011;37799;52.390;6.136;2024-02-28T06:26:30;33.80;;;11.75;;
37201;SDS011;37799;52.390;6.136;2024-02-28T06:28:56;32.35;;;13.20;;
37201;SDS011;37799;52.390;6.136;2024-02-28T06:31:26;32.40;;;11.73;;
37201;SDS011;37799;52.390;6.136;2024-02-28T06:33:52;30.27;;;11.98;;
37201;SDS011;37799;52.390;6.136;2024-02-28T06:36:17;35.78;;;12.93;;
37201;SDS011;37799;52.390;6.136;2024-02-28T06:38:42;32.78;;;11.95;;
37201;SDS011;37799;52.390;6.136;2024-02-28T06:41:08;33.00;;;12.25;;
37201;SDS011;37799;52.390;6.136;2024-02-28T06:43:33;32.17;;;12.05;;
37201;SDS011;37799;52.390;6.136;2024-02-28T06:46:00;32.85;;;12.73;;
37201;SDS011;37799;52.390;6.136;2024-02-28T06:48:26;35.95;;;13.48;;
37201;SDS011;37799;52.390;6.136;2024-02-28T06:50:51;33.55;;;12.45;;
37201;SDS011;37799;52.390;6.136;2024-02-28T06:53:16;30.52;;;12.18;;
37201;SDS011;37799;52.390;6.136;2024-02-28T06:55:42;37.72;;;13.02;;
37201;SDS011;37799;52.390;6.136;2024-02-28T06:58:07;37.20;;;13.77;;
37201;SDS011;37799;52.390;6.136;2024-02-28T07:00:33;27.65;;;10.25;;
37201;SDS011;37799;52.390;6.136;2024-02-28T07:02:58;34.13;;;12.55;;
37201;SDS011;37799;52.390;6.136;2024-02-28T07:05:23;38.15;;;14.05;;
37201;SDS011;37799;52.390;6.136;2024-02-28T07:07:49;36.92;;;13.13;;
37201;SDS011;37799;52.390;6.136;2024-02-28T07:10:14;36.95;;;13.35;;
37201;SDS011;37799;52.390;6.136;2024-02-28T07:12:40;33.83;;;12.63;;
37201;SDS011;37799;52.390;6.136;2024-02-28T07:15:05;32.67;;;13.27;;
37201;SDS011;37799;52.390;6.136;2024-02-28T07:17:31;34.80;;;13.38;;
37201;SDS011;37799;52.390;6.136;2024-02-28T07:19:56;31.85;;;12.27;;
37201;SDS011;37799;52.390;6.136;2024-02-28T07:22:22;31.98;;;11.80;;
37201;SDS011;37799;52.390;6.136;2024-02-28T07:24:47;32.60;;;12.38;;
37201;SDS011;37799;52.390;6.136;2024-02-28T07:27:13;34.47;;;12.38;;
37201;SDS011;37799;52.390;6.136;2024-02-28T07:29:38;35.03;;;12.73;;
37201;SDS011;37799;52.390;6.136;2024-02-28T07:32:04;32.05;;;12.45;;
37201;SDS011;37799;52.390;6.136;2024-02-28T07:34:29;35.30;;;13.25;;
37201;SDS011;37799;52.390;6.136;2024-02-28T07:36:55;31.90;;;13.63;;
37201;SDS011;37799;52.390;6.136;2024-02-28T07:39:20;32.00;;;12.35;;
37201;SDS011;37799;52.390;6.136;2024-02-28T07:41:46;31.13;;;13.68;;
37201;SDS011;37799;52.390;6.136;2024-02-28T07:44:11;31.63;;;12.55;;
37201;SDS011;37799;52.390;6.136;2024-02-28T07:46:37;30.83;;;12.27;;
37201;SDS011;37799;52.390;6.136;2024-02-28T07:49:02;34.10;;;13.27;;
37201;SDS011;37799;52.390;6.136;2024-02-28T07:51:27;32.58;;;13.10;;
37201;SDS011;37799;52.390;6.136;2024-02-28T07:53:53;33.28;;;12.65;;
37201;SDS011;37799;52.390;6.136;2024-02-28T07:56:19;27.73;;;12.20;;
37201;SDS011;37799;52.390;6.136;2024-02-28T07:58:45;26.95;;;11.95;;
37201;SDS011;37799;52.390;6.136;2024-02-28T08:01:11;34.00;;;12.45;;
37201;SDS011;37799;52.390;6.136;2024-02-28T08:03:36;31.15;;;13.30;;
37201;SDS011;37799;52.390;6.136;2024-02-28T08:06:02;33.80;;;13.63;;
37201;SDS011;37799;52.390;6.136;2024-02-28T08:08:27;33.25;;;13.18;;
37201;SDS011;37799;52.390;6.136;2024-02-28T08:10:53;31.50;;;13.00;;
37201;SDS011;37799;52.390;6.136;2024-02-28T08:13:18;32.15;;;13.98;;
37201;SDS011;37799;52.390;6.136;2024-02-28T08:15:44;32.15;;;13.52;;
37201;SDS011;37799;52.390;6.136;2024-02-28T08:18:09;30.88;;;12.57;;
37201;SDS011;37799;52.390;6.136;2024-02-28T08:20:36;26.20;;;10.85;;
37201;SDS011;37799;52.390;6.136;2024-02-28T08:23:02;34.00;;;13.93;;
37201;SDS011;37799;52.390;6.136;2024-02-28T08:25:28;32.10;;;13.32;;
37201;SDS011;37799;52.390;6.136;2024-02-28T08:27:54;31.90;;;13.77;;
37201;SDS011;37799;52.390;6.136;2024-02-28T08:30:19;33.10;;;13.85;;
37201;SDS011;37799;52.390;6.136;2024-02-28T08:32:44;32.63;;;14.07;;
37201;SDS011;37799;52.390;6.136;2024-02-28T08:35:10;32.00;;;14.30;;
37201;SDS011;37799;52.390;6.136;2024-02-28T08:37:38;31.98;;;14.45;;
37201;SDS011;37799;52.390;6.136;2024-02-28T08:40:03;36.55;;;14.23;;
37201;SDS011;37799;52.390;6.136;2024-02-28T08:42:30;32.60;;;13.77;;
37201;SDS011;37799;52.390;6.136;2024-02-28T08:44:55;29.50;;;14.20;;
37201;SDS011;37799;52.390;6.136;2024-02-28T08:47:24;33.22;;;14.98;;
37201;SDS011;37799;52.390;6.136;2024-02-28T08:49:50;37.90;;;13.60;;
37201;SDS011;37799;52.390;6.136;2024-02-28T08:52:16;29.73;;;13.90;;
37201;SDS011;37799;52.390;6.136;2024-02-28T08:54:41;29.98;;;13.70;;
37201;SDS011;37799;52.390;6.136;2024-02-28T08:57:06;31.02;;;14.40;;
37201;SDS011;37799;52.390;6.136;2024-02-28T08:59:32;34.00;;;15.00;;
37201;SDS011;37799;52.390;6.136;2024-02-28T09:01:57;28.83;;;13.20;;
37201;SDS011;37799;52.390;6.136;2024-02-28T09:04:23;28.75;;;14.38;;
37201;SDS011;37799;52.390;6.136;2024-02-28T09:06:48;29.77;;;13.23;;
37201;SDS011;37799;52.390;6.136;2024-02-28T09:09:13;30.23;;;13.63;;
37201;SDS011;37799;52.390;6.136;2024-02-28T09:11:39;29.75;;;13.88;;
37201;SDS011;37799;52.390;6.136;2024-02-28T09:14:04;30.52;;;15.05;;
37201;SDS011;37799;52.390;6.136;2024-02-28T09:16:30;30.58;;;15.98;;
37201;SDS011;37799;52.390;6.136;2024-02-28T09:18:55;37.20;;;15.85;;
37201;SDS011;37799;52.390;6.136;2024-02-28T09:21:20;30.98;;;13.93;;
37201;SDS011;37799;52.390;6.136;2024-02-28T09:23:45;31.15;;;13.90;;
37201;SDS011;37799;52.390;6.136;2024-02-28T09:26:11;28.27;;;13.75;;
37201;SDS011;37799;52.390;6.136;2024-02-28T09:28:36;31.38;;;15.60;;
37201;SDS011;37799;52.390;6.136;2024-02-28T09:31:01;33.00;;;15.55;;
37201;SDS011;37799;52.390;6.136;2024-02-28T09:33:27;29.63;;;14.05;;
37201;SDS011;37799;52.390;6.136;2024-02-28T09:35:52;30.52;;;15.32;;
37201;SDS011;37799;52.390;6.136;2024-02-28T09:38:18;29.88;;;14.70;;
37201;SDS011;37799;52.390;6.136;2024-02-28T09:40:47;32.88;;;15.13;;
37201;SDS011;37799;52.390;6.136;2024-02-28T09:43:15;32.42;;;15.27;;
37201;SDS011;37799;52.390;6.136;2024-02-28T09:45:49;30.48;;;15.18;;
37201;SDS011;37799;52.390;6.136;2024-02-28T09:48:15;27.95;;;13.95;;
37201;SDS011;37799;52.390;6.136;2024-02-28T09:50:41;30.83;;;14.23;;
37201;SDS011;37799;52.390;6.136;2024-02-28T09:53:07;34.65;;;14.73;;
37201;SDS011;37799;52.390;6.136;2024-02-28T09:55:33;31.90;;;14.82;;
37201;SDS011;37799;52.390;6.136;2024-02-28T09:57:58;31.60;;;14.02;;
37201;SDS011;37799;52.390;6.136;2024-02-28T10:00:25;32.95;;;14.80;;
37201;SDS011;37799;52.390;6.136;2024-02-28T10:02:51;30.25;;;13.73;;
37201;SDS011;37799;52.390;6.136;2024-02-28T10:05:18;24.63;;;12.35;;
37201;SDS011;37799;52.390;6.136;2024-02-28T10:07:47;27.30;;;12.70;;
37201;SDS011;37799;52.390;6.136;2024-02-28T10:10:14;26.33;;;13.25;;
37201;SDS011;37799;52.390;6.136;2024-02-28T10:12:41;27.63;;;13.52;;
37201;SDS011;37799;52.390;6.136;2024-02-28T10:15:10;26.02;;;13.45;;
37201;SDS011;37799;52.390;6.136;2024-02-28T10:17:36;28.75;;;14.10;;
37201;SDS011;37799;52.390;6.136;2024-02-28T10:20:01;31.05;;;16.38;;
37201;SDS011;37799;52.390;6.136;2024-02-28T10:22:33;28.65;;;14.35;;
37201;SDS011;37799;52.390;6.136;2024-02-28T10:25:00;32.40;;;14.23;;
37201;SDS011;37799;52.390;6.136;2024-02-28T10:27:25;31.35;;;15.25;;
37201;SDS011;37799;52.390;6.136;2024-02-28T10:29:51;22.55;;;10.85;;
37201;SDS011;37799;52.390;6.136;2024-02-28T10:32:16;28.83;;;13.00;;
37201;SDS011;37799;52.390;6.136;2024-02-28T10:34:41;30.58;;;14.43;;
37201;SDS011;37799;52.390;6.136;2024-02-28T10:37:09;28.20;;;13.80;;
37201;SDS011;37799;52.390;6.136;2024-02-28T10:39:35;28.92;;;14.10;;
37201;SDS011;37799;52.390;6.136;2024-02-28T10:42:03;28.38;;;14.45;;
37201;SDS011;37799;52.390;6.136;2024-02-28T10:44:29;29.23;;;12.75;;
37201;SDS011;37799;52.390;6.136;2024-02-28T10:46:55;31.52;;;14.45;;
37201;SDS011;37799;52.390;6.136;2024-02-28T10:49:21;28.60;;;13.20;;
37201;SDS011;37799;52.390;6.136;2024-02-28T10:51:48;31.45;;;14.45;;
37201;SDS011;37799;52.390;6.136;2024-02-28T10:54:14;26.95;;;13.65;;
37201;SDS011;37799;52.390;6.136;2024-02-28T10:56:40;30.70;;;14.10;;
37201;SDS011;37799;52.390;6.136;2024-02-28T10:59:07;27.98;;;13.68;;
37201;SDS011;37799;52.390;6.136;2024-02-28T11:01:38;28.27;;;13.77;;
37201;SDS011;37799;52.390;6.136;2024-02-28T11:04:07;29.40;;;13.57;;
37201;SDS011;37799;52.390;6.136;2024-02-28T11:06:33;35.55;;;15.20;;
37201;SDS011;37799;52.390;6.136;2024-02-28T11:08:59;29.40;;;14.60;;
37201;SDS011;37799;52.390;6.136;2024-02-28T11:11:29;30.00;;;15.32;;
37201;SDS011;37799;52.390;6.136;2024-02-28T11:13:57;28.52;;;13.52;;
37201;SDS011;37799;52.390;6.136;2024-02-28T11:16:29;32.30;;;13.98;;
37201;SDS011;37799;52.390;6.136;2024-02-28T11:18:56;29.08;;;13.82;;
37201;SDS011;37799;52.390;6.136;2024-02-28T11:21:25;27.92;;;13.63;;
37201;SDS011;37799;52.390;6.136;2024-02-28T11:23:51;26.50;;;13.27;;
37201;SDS011;37799;52.390;6.136;2024-02-28T11:26:17;27.52;;;13.52;;
37201;SDS011;37799;52.390;6.136;2024-02-28T11:28:43;29.60;;;13.45;;
37201;SDS011;37799;52.390;6.136;2024-02-28T11:31:08;31.25;;;14.27;;
37201;SDS011;37799;52.390;6.136;2024-02-28T11:33:35;28.75;;;12.98;;
37201;SDS011;37799;52.390;6.136;2024-02-28T11:36:01;28.33;;;12.95;;
37201;SDS011;37799;52.390;6.136;2024-02-28T11:38:28;27.65;;;14.57;;
37201;SDS011;37799;52.390;6.136;2024-02-28T11:40:53;28.75;;;13.73;;
37201;SDS011;37799;52.390;6.136;2024-02-28T11:43:20;28.42;;;14.10;;
37201;SDS011;37799;52.390;6.136;2024-02-28T11:45:46;28.13;;;13.32;;
37201;SDS011;37799;52.390;6.136;2024-02-28T11:48:14;25.50;;;12.38;;
37201;SDS011;37799;52.390;6.136;2024-02-28T11:50:40;28.77;;;11.75;;
37201;SDS011;37799;52.390;6.136;2024-02-28T11:53:05;28.63;;;12.48;;
37201;SDS011;37799;52.390;6.136;2024-02-28T11:55:32;27.13;;;12.38;;
37201;SDS011;37799;52.390;6.136;2024-02-28T11:57:58;34.20;;;13.60;;
37201;SDS011;37799;52.390;6.136;2024-02-28T12:00:23;27.02;;;11.60;;
37201;SDS011;37799;52.390;6.136;2024-02-28T12:02:48;27.30;;;12.90;;
37201;SDS011;37799;52.390;6.136;2024-02-28T12:05:13;26.05;;;10.60;;
37201;SDS011;37799;52.390;6.136;2024-02-28T12:07:39;28.88;;;13.50;;
37201;SDS011;37799;52.390;6.136;2024-02-28T12:10:05;29.10;;;13.38;;
37201;SDS011;37799;52.390;6.136;2024-02-28T12:12:31;26.73;;;12.63;;
37201;SDS011;37799;52.390;6.136;2024-02-28T12:15:00;27.02;;;12.00;;
37201;SDS011;37799;52.390;6.136;2024-02-28T12:17:28;26.77;;;12.70;;
37201;SDS011;37799;52.390;6.136;2024-02-28T12:19:54;29.88;;;13.57;;
37201;SDS011;37799;52.390;6.136;2024-02-28T12:22:19;32.78;;;12.98;;
37201;SDS011;37799;52.390;6.136;2024-02-28T12:24:45;26.67;;;12.00;;
37201;SDS011;37799;52.390;6.136;2024-02-28T12:27:10;27.48;;;12.68;;
37201;SDS011;37799;52.390;6.136;2024-02-28T12:29:35;27.92;;;13.73;;
37201;SDS011;37799;52.390;6.136;2024-02-28T12:32:01;27.80;;;13.32;;
37201;SDS011;37799;52.390;6.136;2024-02-28T12:34:27;28.13;;;13.73;;
37201;SDS011;37799;52.390;6.136;2024-02-28T12:36:52;29.95;;;13.32;;
37201;SDS011;37799;52.390;6.136;2024-02-28T12:39:18;28.75;;;13.80;;
37201;SDS011;37799;52.390;6.136;2024-02-28T12:41:44;29.85;;;14.30;;
37201;SDS011;37799;52.390;6.136;2024-02-28T12:44:09;25.45;;;12.43;;
37201;SDS011;37799;52.390;6.136;2024-02-28T12:46:35;29.02;;;13.43;;
37201;SDS011;37799;52.390;6.136;2024-02-28T12:49:01;30.58;;;13.23;;
37201;SDS011;37799;52.390;6.136;2024-02-28T12:54:05;27.98;;;12.45;;
37201;SDS011;37799;52.390;6.136;2024-02-28T12:56:31;26.27;;;12.93;;
37201;SDS011;37799;52.390;6.136;2024-02-28T12:58:56;26.98;;;13.77;;
37201;SDS011;37799;52.390;6.136;2024-02-28T13:01:21;26.92;;;12.82;;
37201;SDS011;37799;52.390;6.136;2024-02-28T13:03:47;27.60;;;13.63;;
37201;SDS011;37799;52.390;6.136;2024-02-28T13:06:13;25.33;;;12.65;;
37201;SDS011;37799;52.390;6.136;2024-02-28T13:08:40;30.55;;;13.82;;
37201;SDS011;37799;52.390;6.136;2024-02-28T13:11:05;27.40;;;13.52;;
37201;SDS011;37799;52.390;6.136;2024-02-28T13:13:32;26.85;;;12.07;;
37201;SDS011;37799;52.390;6.136;2024-02-28T13:15:58;27.52;;;12.40;;
37201;SDS011;37799;52.390;6.136;2024-02-28T13:18:23;27.67;;;11.82;;
37201;SDS011;37799;52.390;6.136;2024-02-28T13:20:50;29.17;;;13.68;;
37201;SDS011;37799;52.390;6.136;2024-02-28T13:23:16;27.80;;;12.80;;
37201;SDS011;37799;52.390;6.136;2024-02-28T13:25:41;27.20;;;13.07;;
37201;SDS011;37799;52.390;6.136;2024-02-28T13:28:06;26.27;;;11.82;;
37201;SDS011;37799;52.390;6.136;2024-02-28T13:30:32;28.67;;;14.27;;
37201;SDS011;37799;52.390;6.136;2024-02-28T13:33:00;24.13;;;11.70;;
37201;SDS011;37799;52.390;6.136;2024-02-28T13:35:25;26.40;;;13.05;;
37201;SDS011;37799;52.390;6.136;2024-02-28T13:37:50;28.38;;;12.90;;
37201;SDS011;37799;52.390;6.136;2024-02-28T13:40:18;28.65;;;12.73;;
37201;SDS011;37799;52.390;6.136;2024-02-28T13:42:43;26.38;;;11.93;;
37201;SDS011;37799;52.390;6.136;2024-02-28T13:45:10;25.33;;;11.82;;
37201;SDS011;37799;52.390;6.136;2024-02-28T13:47:36;25.80;;;12.35;;
37201;SDS011;37799;52.390;6.136;2024-02-28T13:50:02;27.02;;;11.93;;
37201;SDS011;37799;52.390;6.136;2024-02-28T13:52:28;28.55;;;12.45;;
37201;SDS011;37799;52.390;6.136;2024-02-28T13:54:53;26.42;;;12.40;;
37201;SDS011;37799;52.390;6.136;2024-02-28T13:57:19;26.80;;;12.30;;
37201;SDS011;37799;52.390;6.136;2024-02-28T13:59:44;25.45;;;11.73;;
37201;SDS011;37799;52.390;6.136;2024-02-28T14:02:13;29.27;;;12.10;;
37201;SDS011;37799;52.390;6.136;2024-02-28T14:04:39;29.98;;;13.55;;
37201;SDS011;37799;52.390;6.136;2024-02-28T14:07:06;25.73;;;12.68;;
37201;SDS011;37799;52.390;6.136;2024-02-28T14:09:32;27.33;;;13.50;;
37201;SDS011;37799;52.390;6.136;2024-02-28T14:11:57;26.13;;;12.48;;
37201;SDS011;37799;52.390;6.136;2024-02-28T14:14:22;27.83;;;13.52;;
37201;SDS011;37799;52.390;6.136;2024-02-28T14:16:48;30.83;;;15.38;;
37201;SDS011;37799;52.390;6.136;2024-02-28T14:19:13;27.00;;;13.20;;